sensor_id;sensor_type;location;lat;lon;timestamp;P1;durP1;ratioP1;P2;durP2;ratioP2
10303;SDS011;5197;48.152;8.590;2024-03-29T00:01:24;1.00;;;0.90;;
10303;SDS011;5197;48.152;8.590;2024-03-29T00:03:50;1.40;;;0.90;;
10303;SDS011;5197;48.152;8.590;2024-03-29T00:06:18;0.70;;;0.70;;
10303;SDS011;5197;48.152;8.590;2024-03-29T00:08:44;1.23;;;0.70;;
10303;SDS011;5197;48.152;8.590;2024-03-29T00:11:10;0.77;;;0.77;;
10303;SDS011;5197;48.152;8.590;2024-03-29T00:13:36;0.90;;;0.90;;
10303;SDS011;5197;48.152;8.590;2024-03-29T00:16:02;0.90;;;0.90;;
10303;SDS011;5197;48.152;8.590;2024-03-29T00:18:28;0.70;;;0.70;;
10303;SDS011;5197;48.152;8.590;2024-03-29T00:20:54;1.93;;;0.70;;
10303;SDS011;5197;48.152;8.590;2024-03-29T00:23:20;0.50;;;0.50;;
10303;SDS011;5197;48.152;8.590;2024-03-29T00:25:46;1.33;;;0.60;;
10303;SDS011;5197;48.152;8.590;2024-03-29T00:28:12;0.50;;;0.50;;
10303;SDS011;5197;48.152;8.590;2024-03-29T00:30:38;0.80;;;0.80;;
10303;SDS011;5197;48.152;8.590;2024-03-29T00:33:04;0.77;;;0.67;;
10303;SDS011;5197;48.152;8.590;2024-03-29T00:35:30;1.33;;;0.90;;
10303;SDS011;5197;48.152;8.590;2024-03-29T00:37:56;1.57;;;0.83;;
10303;SDS011;5197;48.152;8.590;2024-03-29T00:40:47;0.83;;;0.73;;
10303;SDS011;5197;48.152;8.590;2024-03-29T00:43:38;0.93;;;0.93;;
10303;SDS011;5197;48.152;8.590;2024-03-29T00:46:04;0.60;;;0.60;;
10303;SDS011;5197;48.152;8.590;2024-03-29T00:48:30;0.80;;;0.70;;
10303;SDS011;5197;48.152;8.590;2024-03-29T00:50:56;0.60;;;0.60;;
10303;SDS011;5197;48.152;8.590;2024-03-29T00:53:22;0.87;;;0.67;;
10303;SDS011;5197;48.152;8.590;2024-03-29T00:55:48;0.73;;;0.73;;
10303;SDS011;5197;48.152;8.590;2024-03-29T00:58:14;0.60;;;0.60;;
10303;SDS011;5197;48.152;8.590;2024-03-29T01:00:39;2.37;;;0.90;;
10303;SDS011;5197;48.152;8.590;2024-03-29T01:03:05;1.10;;;1.00;;
10303;SDS011;5197;48.152;8.590;2024-03-29T01:05:31;0.57;;;0.57;;
10303;SDS011;5197;48.152;8.590;2024-03-29T01:07:57;1.90;;;0.57;;
10303;SDS011;5197;48.152;8.590;2024-03-29T01:10:23;0.70;;;0.67;;
10303;SDS011;5197;48.152;8.590;2024-03-29T01:12:49;0.63;;;0.63;;
10303;SDS011;5197;48.152;8.590;2024-03-29T01:15:15;1.60;;;0.83;;
10303;SDS011;5197;48.152;8.590;2024-03-29T01:17:41;0.83;;;0.77;;
10303;SDS011;5197;48.152;8.590;2024-03-29T01:22:59;1.00;;;0.90;;
10303;SDS011;5197;48.152;8.590;2024-03-29T01:25:26;1.50;;;1.10;;
10303;SDS011;5197;48.152;8.590;2024-03-29T01:27:52;1.57;;;1.17;;
10303;SDS011;5197;48.152;8.590;2024-03-29T01:30:18;3.33;;;0.80;;
10303;SDS011;5197;48.152;8.590;2024-03-29T01:33:09;1.23;;;0.80;;
10303;SDS011;5197;48.152;8.590;2024-03-29T01:36:00;3.97;;;1.10;;
10303;SDS011;5197;48.152;8.590;2024-03-29T01:38:51;0.93;;;0.93;;
10303;SDS011;5197;48.152;8.590;2024-03-29T01:41:20;1.70;;;1.10;;
10303;SDS011;5197;48.152;8.590;2024-03-29T01:43:46;0.73;;;0.73;;
10303;SDS011;5197;48.152;8.590;2024-03-29T01:46:12;3.50;;;1.30;;
10303;SDS011;5197;48.152;8.590;2024-03-29T01:48:38;1.47;;;1.00;;
10303;SDS011;5197;48.152;8.590;2024-03-29T01:51:04;0.90;;;0.90;;
10303;SDS011;5197;48.152;8.590;2024-03-29T01:53:30;2.20;;;1.13;;
10303;SDS011;5197;48.152;8.590;2024-03-29T01:56:21;3.37;;;0.80;;
10303;SDS011;5197;48.152;8.590;2024-03-29T01:59:13;1.03;;;0.90;;
10303;SDS011;5197;48.152;8.590;2024-03-29T02:02:06;0.93;;;0.90;;
10303;SDS011;5197;48.152;8.590;2024-03-29T02:04:57;0.97;;;0.93;;
10303;SDS011;5197;48.152;8.590;2024-03-29T02:07:25;1.33;;;1.10;;
10303;SDS011;5197;48.152;8.590;2024-03-29T02:09:51;0.83;;;0.77;;
10303;SDS011;5197;48.152;8.590;2024-03-29T02:12:17;0.87;;;0.87;;
10303;SDS011;5197;48.152;8.590;2024-03-29T02:14:43;1.40;;;1.30;;
10303;SDS011;5197;48.152;8.590;2024-03-29T02:17:09;1.80;;;1.30;;
10303;SDS011;5197;48.152;8.590;2024-03-29T02:19:35;2.03;;;1.00;;
10303;SDS011;5197;48.152;8.590;2024-03-29T02:22:01;1.23;;;1.10;;
10303;SDS011;5197;48.152;8.590;2024-03-29T02:24:31;1.03;;;0.90;;
10303;SDS011;5197;48.152;8.590;2024-03-29T02:26:57;1.73;;;1.03;;
10303;SDS011;5197;48.152;8.590;2024-03-29T02:29:23;1.90;;;1.00;;
10303;SDS011;5197;48.152;8.590;2024-03-29T02:31:50;1.13;;;1.00;;
10303;SDS011;5197;48.152;8.590;2024-03-29T02:34:16;2.53;;;0.97;;
10303;SDS011;5197;48.152;8.590;2024-03-29T02:36:44;0.83;;;0.83;;
10303;SDS011;5197;48.152;8.590;2024-03-29T02:39:11;1.43;;;1.10;;
10303;SDS011;5197;48.152;8.590;2024-03-29T02:41:36;1.43;;;0.80;;
10303;SDS011;5197;48.152;8.590;2024-03-29T02:44:02;1.10;;;1.00;;
10303;SDS011;5197;48.152;8.590;2024-03-29T02:46:28;0.87;;;0.83;;
10303;SDS011;5197;48.152;8.590;2024-03-29T02:48:54;1.07;;;0.93;;
10303;SDS011;5197;48.152;8.590;2024-03-29T02:51:20;2.30;;;1.20;;
10303;SDS011;5197;48.152;8.590;2024-03-29T02:53:46;1.10;;;0.93;;
10303;SDS011;5197;48.152;8.590;2024-03-29T02:56:12;1.13;;;1.03;;
10303;SDS011;5197;48.152;8.590;2024-03-29T02:58:39;1.00;;;0.90;;
10303;SDS011;5197;48.152;8.590;2024-03-29T03:01:08;0.80;;;0.80;;
10303;SDS011;5197;48.152;8.590;2024-03-29T03:03:35;2.53;;;0.83;;
10303;SDS011;5197;48.152;8.590;2024-03-29T03:06:01;0.90;;;0.90;;
10303;SDS011;5197;48.152;8.590;2024-03-29T03:08:29;0.73;;;0.73;;
10303;SDS011;5197;48.152;8.590;2024-03-29T03:11:13;0.90;;;0.90;;
10303;SDS011;5197;48.152;8.590;2024-03-29T03:13:39;0.80;;;0.80;;
10303;SDS011;5197;48.152;8.590;2024-03-29T03:16:05;0.70;;;0.70;;
10303;SDS011;5197;48.152;8.590;2024-03-29T03:18:31;1.37;;;1.00;;
10303;SDS011;5197;48.152;8.590;2024-03-29T03:20:57;2.57;;;1.03;;
10303;SDS011;5197;48.152;8.590;2024-03-29T03:23:24;2.30;;;0.60;;
10303;SDS011;5197;48.152;8.590;2024-03-29T03:26:08;0.80;;;0.80;;
10303;SDS011;5197;48.152;8.590;2024-03-29T03:28:34;0.87;;;0.87;;
10303;SDS011;5197;48.152;8.590;2024-03-29T03:31:01;0.63;;;0.63;;
10303;SDS011;5197;48.152;8.590;2024-03-29T03:33:27;0.73;;;0.70;;
10303;SDS011;5197;48.152;8.590;2024-03-29T03:35:52;0.73;;;0.73;;
10303;SDS011;5197;48.152;8.590;2024-03-29T03:38:18;1.00;;;0.77;;
10303;SDS011;5197;48.152;8.590;2024-03-29T03:40:44;0.83;;;0.63;;
10303;SDS011;5197;48.152;8.590;2024-03-29T03:43:10;0.83;;;0.83;;
10303;SDS011;5197;48.152;8.590;2024-03-29T03:45:36;1.23;;;0.90;;
10303;SDS011;5197;48.152;8.590;2024-03-29T03:48:09;0.60;;;0.60;;
10303;SDS011;5197;48.152;8.590;2024-03-29T03:50:37;0.60;;;0.60;;
10303;SDS011;5197;48.152;8.590;2024-03-29T03:53:03;0.87;;;0.70;;
10303;SDS011;5197;48.152;8.590;2024-03-29T03:55:29;3.93;;;1.00;;
10303;SDS011;5197;48.152;8.590;2024-03-29T03:57:55;0.63;;;0.63;;
10303;SDS011;5197;48.152;8.590;2024-03-29T04:00:22;0.50;;;0.50;;
10303;SDS011;5197;48.152;8.590;2024-03-29T04:02:48;0.67;;;0.67;;
10303;SDS011;5197;48.152;8.590;2024-03-29T04:05:19;0.50;;;0.50;;
10303;SDS011;5197;48.152;8.590;2024-03-29T04:07:45;0.50;;;0.50;;
10303;SDS011;5197;48.152;8.590;2024-03-29T04:10:12;1.30;;;0.80;;
10303;SDS011;5197;48.152;8.590;2024-03-29T04:12:38;1.90;;;0.70;;
10303;SDS011;5197;48.152;8.590;2024-03-29T04:15:04;0.90;;;0.50;;
10303;SDS011;5197;48.152;8.590;2024-03-29T04:17:31;0.60;;;0.60;;
10303;SDS011;5197;48.152;8.590;2024-03-29T04:20:00;0.53;;;0.53;;
10303;SDS011;5197;48.152;8.590;2024-03-29T04:22:30;3.07;;;0.80;;
10303;SDS011;5197;48.152;8.590;2024-03-29T04:24:56;0.67;;;0.67;;
10303;SDS011;5197;48.152;8.590;2024-03-29T04:27:22;1.23;;;0.80;;
10303;SDS011;5197;48.152;8.590;2024-03-29T04:29:52;1.27;;;0.60;;
10303;SDS011;5197;48.152;8.590;2024-03-29T04:34:48;1.00;;;0.77;;
10303;SDS011;5197;48.152;8.590;2024-03-29T04:37:15;1.60;;;0.40;;
10303;SDS011;5197;48.152;8.590;2024-03-29T04:39:42;0.60;;;0.60;;
10303;SDS011;5197;48.152;8.590;2024-03-29T04:42:09;0.63;;;0.50;;
10303;SDS011;5197;48.152;8.590;2024-03-29T04:44:35;1.73;;;0.50;;
10303;SDS011;5197;48.152;8.590;2024-03-29T04:47:01;0.63;;;0.63;;
10303;SDS011;5197;48.152;8.590;2024-03-29T04:49:27;0.87;;;0.43;;
10303;SDS011;5197;48.152;8.590;2024-03-29T04:52:00;0.40;;;0.40;;
10303;SDS011;5197;48.152;8.590;2024-03-29T04:54:26;0.73;;;0.73;;
10303;SDS011;5197;48.152;8.590;2024-03-29T04:56:53;1.80;;;0.70;;
10303;SDS011;5197;48.152;8.590;2024-03-29T04:59:19;0.90;;;0.50;;
10303;SDS011;5197;48.152;8.590;2024-03-29T05:02:11;0.53;;;0.53;;
10303;SDS011;5197;48.152;8.590;2024-03-29T05:05:02;0.67;;;0.67;;
10303;SDS011;5197;48.152;8.590;2024-03-29T05:07:53;0.50;;;0.50;;
10303;SDS011;5197;48.152;8.590;2024-03-29T05:10:44;0.47;;;0.47;;
10303;SDS011;5197;48.152;8.590;2024-03-29T05:13:10;1.93;;;0.70;;
10303;SDS011;5197;48.152;8.590;2024-03-29T05:15:37;0.60;;;0.60;;
10303;SDS011;5197;48.152;8.590;2024-03-29T05:18:03;0.53;;;0.53;;
10303;SDS011;5197;48.152;8.590;2024-03-29T05:20:30;0.70;;;0.70;;
10303;SDS011;5197;48.152;8.590;2024-03-29T05:22:57;0.60;;;0.60;;
10303;SDS011;5197;48.152;8.590;2024-03-29T05:25:24;1.80;;;0.70;;
10303;SDS011;5197;48.152;8.590;2024-03-29T05:27:50;0.67;;;0.67;;
10303;SDS011;5197;48.152;8.590;2024-03-29T05:30:16;0.50;;;0.50;;
10303;SDS011;5197;48.152;8.590;2024-03-29T05:32:42;3.47;;;0.90;;
10303;SDS011;5197;48.152;8.590;2024-03-29T05:35:09;4.33;;;0.93;;
10303;SDS011;5197;48.152;8.590;2024-03-29T05:37:36;1.00;;;0.63;;
10303;SDS011;5197;48.152;8.590;2024-03-29T05:40:02;0.80;;;0.70;;
10303;SDS011;5197;48.152;8.590;2024-03-29T05:42:32;1.00;;;0.50;;
10303;SDS011;5197;48.152;8.590;2024-03-29T05:44:59;0.57;;;0.53;;
10303;SDS011;5197;48.152;8.590;2024-03-29T05:47:25;1.17;;;0.80;;
10303;SDS011;5197;48.152;8.590;2024-03-29T05:49:51;0.93;;;0.73;;
10303;SDS011;5197;48.152;8.590;2024-03-29T05:52:17;0.77;;;0.60;;
10303;SDS011;5197;48.152;8.590;2024-03-29T05:54:43;0.57;;;0.57;;
10303;SDS011;5197;48.152;8.590;2024-03-29T05:57:10;0.43;;;0.43;;
10303;SDS011;5197;48.152;8.590;2024-03-29T05:59:36;0.50;;;0.50;;
10303;SDS011;5197;48.152;8.590;2024-03-29T06:02:02;1.23;;;0.47;;
10303;SDS011;5197;48.152;8.590;2024-03-29T06:04:28;0.90;;;0.50;;
10303;SDS011;5197;48.152;8.590;2024-03-29T06:06:58;0.80;;;0.80;;
10303;SDS011;5197;48.152;8.590;2024-03-29T06:09:24;0.50;;;0.50;;
10303;SDS011;5197;48.152;8.590;2024-03-29T06:11:50;0.60;;;0.57;;
10303;SDS011;5197;48.152;8.590;2024-03-29T06:14:18;0.93;;;0.83;;
10303;SDS011;5197;48.152;8.590;2024-03-29T06:17:03;0.87;;;0.60;;
10303;SDS011;5197;48.152;8.590;2024-03-29T06:19:51;0.83;;;0.40;;
10303;SDS011;5197;48.152;8.590;2024-03-29T06:22:20;1.27;;;0.87;;
10303;SDS011;5197;48.152;8.590;2024-03-29T06:24:46;0.60;;;0.60;;
10303;SDS011;5197;48.152;8.590;2024-03-29T06:27:13;0.80;;;0.80;;
10303;SDS011;5197;48.152;8.590;2024-03-29T06:29:46;0.70;;;0.70;;
10303;SDS011;5197;48.152;8.590;2024-03-29T06:32:12;0.87;;;0.60;;
10303;SDS011;5197;48.152;8.590;2024-03-29T06:34:39;0.93;;;0.93;;
10303;SDS011;5197;48.152;8.590;2024-03-29T06:37:05;0.93;;;0.93;;
10303;SDS011;5197;48.152;8.590;2024-03-29T06:39:31;1.37;;;1.27;;
10303;SDS011;5197;48.152;8.590;2024-03-29T06:41:57;0.90;;;0.90;;
10303;SDS011;5197;48.152;8.590;2024-03-29T06:44:22;1.77;;;1.33;;
10303;SDS011;5197;48.152;8.590;2024-03-29T06:46:48;1.20;;;1.07;;
10303;SDS011;5197;48.152;8.590;2024-03-29T06:49:15;5.13;;;2.47;;
10303;SDS011;5197;48.152;8.590;2024-03-29T06:51:41;4.27;;;2.63;;
10303;SDS011;5197;48.152;8.590;2024-03-29T06:54:08;2.93;;;2.40;;
10303;SDS011;5197;48.152;8.590;2024-03-29T06:56:34;2.17;;;1.97;;
10303;SDS011;5197;48.152;8.590;2024-03-29T06:59:00;0.80;;;0.80;;
10303;SDS011;5197;48.152;8.590;2024-03-29T07:01:26;6.90;;;4.23;;
10303;SDS011;5197;48.152;8.590;2024-03-29T07:03:52;7.20;;;4.47;;
10303;SDS011;5197;48.152;8.590;2024-03-29T07:06:18;4.30;;;2.93;;
10303;SDS011;5197;48.152;8.590;2024-03-29T07:08:44;3.73;;;1.47;;
10303;SDS011;5197;48.152;8.590;2024-03-29T07:11:12;0.70;;;0.70;;
10303;SDS011;5197;48.152;8.590;2024-03-29T07:13:38;0.93;;;0.50;;
10303;SDS011;5197;48.152;8.590;2024-03-29T07:16:04;0.40;;;0.40;;
10303;SDS011;5197;48.152;8.590;2024-03-29T07:18:32;0.30;;;0.30;;
10303;SDS011;5197;48.152;8.590;2024-03-29T07:20:58;0.80;;;0.40;;
10303;SDS011;5197;48.152;8.590;2024-03-29T07:23:24;0.70;;;0.70;;
10303;SDS011;5197;48.152;8.590;2024-03-29T07:26:03;1.57;;;0.57;;
10303;SDS011;5197;48.152;8.590;2024-03-29T07:28:54;0.63;;;0.63;;
10303;SDS011;5197;48.152;8.590;2024-03-29T07:31:45;2.53;;;0.90;;
10303;SDS011;5197;48.152;8.590;2024-03-29T07:34:36;1.03;;;0.57;;
10303;SDS011;5197;48.152;8.590;2024-03-29T07:37:06;0.87;;;0.77;;
10303;SDS011;5197;48.152;8.590;2024-03-29T07:39:32;0.50;;;0.50;;
10303;SDS011;5197;48.152;8.590;2024-03-29T07:41:57;0.40;;;0.40;;
10303;SDS011;5197;48.152;8.590;2024-03-29T07:44:23;0.73;;;0.50;;
10303;SDS011;5197;48.152;8.590;2024-03-29T07:46:49;0.80;;;0.60;;
10303;SDS011;5197;48.152;8.590;2024-03-29T07:49:15;1.43;;;0.63;;
10303;SDS011;5197;48.152;8.590;2024-03-29T07:51:46;1.93;;;0.53;;
10303;SDS011;5197;48.152;8.590;2024-03-29T07:54:13;3.93;;;0.70;;
10303;SDS011;5197;48.152;8.590;2024-03-29T07:57:04;0.73;;;0.70;;
10303;SDS011;5197;48.152;8.590;2024-03-29T07:59:34;1.27;;;0.60;;
10303;SDS011;5197;48.152;8.590;2024-03-29T08:02:00;0.70;;;0.70;;
10303;SDS011;5197;48.152;8.590;2024-03-29T08:04:27;0.50;;;0.50;;
10303;SDS011;5197;48.152;8.590;2024-03-29T08:06:53;0.70;;;0.70;;
10303;SDS011;5197;48.152;8.590;2024-03-29T08:09:20;1.00;;;0.73;;
10303;SDS011;5197;48.152;8.590;2024-03-29T08:11:46;2.57;;;0.67;;
10303;SDS011;5197;48.152;8.590;2024-03-29T08:14:12;1.77;;;1.30;;
10303;SDS011;5197;48.152;8.590;2024-03-29T08:16:37;1.07;;;0.77;;
10303;SDS011;5197;48.152;8.590;2024-03-29T08:19:05;1.83;;;0.77;;
10303;SDS011;5197;48.152;8.590;2024-03-29T08:21:30;0.87;;;0.60;;
10303;SDS011;5197;48.152;8.590;2024-03-29T08:23:58;0.70;;;0.67;;
10303;SDS011;5197;48.152;8.590;2024-03-29T08:26:25;0.60;;;0.60;;
10303;SDS011;5197;48.152;8.590;2024-03-29T08:28:54;0.60;;;0.60;;
10303;SDS011;5197;48.152;8.590;2024-03-29T08:31:20;2.43;;;0.80;;
10303;SDS011;5197;48.152;8.590;2024-03-29T08:33:47;1.10;;;1.10;;
10303;SDS011;5197;48.152;8.590;2024-03-29T08:36:13;3.07;;;1.13;;
10303;SDS011;5197;48.152;8.590;2024-03-29T08:38:39;1.63;;;1.10;;
10303;SDS011;5197;48.152;8.590;2024-03-29T08:41:08;0.77;;;0.67;;
10303;SDS011;5197;48.152;8.590;2024-03-29T08:43:34;0.80;;;0.80;;
10303;SDS011;5197;48.152;8.590;2024-03-29T08:46:00;1.13;;;0.90;;
10303;SDS011;5197;48.152;8.590;2024-03-29T08:48:26;1.23;;;1.00;;
10303;SDS011;5197;48.152;8.590;2024-03-29T08:50:53;0.83;;;0.83;;
10303;SDS011;5197;48.152;8.590;2024-03-29T08:53:19;0.60;;;0.53;;
10303;SDS011;5197;48.152;8.590;2024-03-29T08:55:46;0.57;;;0.57;;
10303;SDS011;5197;48.152;8.590;2024-03-29T08:58:14;1.23;;;0.90;;
10303;SDS011;5197;48.152;8.590;2024-03-29T09:00:40;1.10;;;0.83;;
10303;SDS011;5197;48.152;8.590;2024-03-29T09:03:05;2.73;;;1.10;;
10303;SDS011;5197;48.152;8.590;2024-03-29T09:05:32;1.30;;;1.20;;
10303;SDS011;5197;48.152;8.590;2024-03-29T09:07:58;1.80;;;1.00;;
10303;SDS011;5197;48.152;8.590;2024-03-29T09:10:25;0.80;;;0.80;;
10303;SDS011;5197;48.152;8.590;2024-03-29T09:12:54;0.70;;;0.70;;
10303;SDS011;5197;48.152;8.590;2024-03-29T09:15:23;0.70;;;0.60;;
10303;SDS011;5197;48.152;8.590;2024-03-29T09:17:50;0.50;;;0.50;;
10303;SDS011;5197;48.152;8.590;2024-03-29T09:20:19;2.90;;;0.70;;
10303;SDS011;5197;48.152;8.590;2024-03-29T09:22:45;2.70;;;0.83;;
10303;SDS011;5197;48.152;8.590;2024-03-29T09:25:11;1.37;;;0.80;;
10303;SDS011;5197;48.152;8.590;2024-03-29T09:28:04;1.93;;;0.93;;
10303;SDS011;5197;48.152;8.590;2024-03-29T09:30:31;0.67;;;0.67;;
10303;SDS011;5197;48.152;8.590;2024-03-29T09:32:56;0.53;;;0.53;;
10303;SDS011;5197;48.152;8.590;2024-03-29T09:35:22;3.30;;;0.70;;
10303;SDS011;5197;48.152;8.590;2024-03-29T09:37:48;1.00;;;0.90;;
10303;SDS011;5197;48.152;8.590;2024-03-29T09:40:16;0.90;;;0.90;;
10303;SDS011;5197;48.152;8.590;2024-03-29T09:42:43;0.70;;;0.70;;
10303;SDS011;5197;48.152;8.590;2024-03-29T09:45:10;0.80;;;0.80;;
10303;SDS011;5197;48.152;8.590;2024-03-29T09:47:36;0.73;;;0.73;;
10303;SDS011;5197;48.152;8.590;2024-03-29T09:50:05;0.80;;;0.80;;
10303;SDS011;5197;48.152;8.590;2024-03-29T09:52:57;0.80;;;0.80;;
10303;SDS011;5197;48.152;8.590;2024-03-29T09:55:24;0.70;;;0.70;;
10303;SDS011;5197;48.152;8.590;2024-03-29T09:57:50;1.10;;;1.00;;
10303;SDS011;5197;48.152;8.590;2024-03-29T10:00:17;1.73;;;1.23;;
10303;SDS011;5197;48.152;8.590;2024-03-29T10:02:43;1.00;;;1.00;;
10303;SDS011;5197;48.152;8.590;2024-03-29T10:05:11;1.57;;;1.33;;
10303;SDS011;5197;48.152;8.590;2024-03-29T10:07:39;0.60;;;0.60;;
10303;SDS011;5197;48.152;8.590;2024-03-29T10:10:05;4.53;;;0.80;;
10303;SDS011;5197;48.152;8.590;2024-03-29T10:12:32;0.77;;;0.60;;
10303;SDS011;5197;48.152;8.590;2024-03-29T10:14:57;2.90;;;1.00;;
10303;SDS011;5197;48.152;8.590;2024-03-29T10:17:47;0.53;;;0.53;;
10303;SDS011;5197;48.152;8.590;2024-03-29T10:20:16;0.70;;;0.70;;
10303;SDS011;5197;48.152;8.590;2024-03-29T10:22:43;0.70;;;0.70;;
10303;SDS011;5197;48.152;8.590;2024-03-29T10:25:10;0.60;;;0.60;;
10303;SDS011;5197;48.152;8.590;2024-03-29T10:27:36;0.63;;;0.63;;
10303;SDS011;5197;48.152;8.590;2024-03-29T10:30:03;1.47;;;0.50;;
10303;SDS011;5197;48.152;8.590;2024-03-29T10:32:30;0.70;;;0.53;;
10303;SDS011;5197;48.152;8.590;2024-03-29T10:34:56;0.40;;;0.40;;
10303;SDS011;5197;48.152;8.590;2024-03-29T10:37:23;0.40;;;0.40;;
10303;SDS011;5197;48.152;8.590;2024-03-29T10:39:52;0.67;;;0.67;;
10303;SDS011;5197;48.152;8.590;2024-03-29T10:42:19;0.80;;;0.80;;
10303;SDS011;5197;48.152;8.590;2024-03-29T10:44:47;0.87;;;0.87;;
10303;SDS011;5197;48.152;8.590;2024-03-29T10:47:18;0.67;;;0.67;;
10303;SDS011;5197;48.152;8.590;2024-03-29T10:49:49;0.77;;;0.63;;
10303;SDS011;5197;48.152;8.590;2024-03-29T10:52:20;0.70;;;0.57;;
10303;SDS011;5197;48.152;8.590;2024-03-29T10:54:49;0.60;;;0.60;;
10303;SDS011;5197;48.152;8.590;2024-03-29T10:57:19;0.70;;;0.70;;
10303;SDS011;5197;48.152;8.590;2024-03-29T11:00:08;1.27;;;0.70;;
10303;SDS011;5197;48.152;8.590;2024-03-29T11:03:52;0.60;;;0.60;;
10303;SDS011;5197;48.152;8.590;2024-03-29T11:06:23;0.47;;;0.43;;
10303;SDS011;5197;48.152;8.590;2024-03-29T11:09:19;0.63;;;0.63;;
10303;SDS011;5197;48.152;8.590;2024-03-29T11:12:13;0.50;;;0.50;;
10303;SDS011;5197;48.152;8.590;2024-03-29T11:14:42;0.77;;;0.77;;
10303;SDS011;5197;48.152;8.590;2024-03-29T11:17:14;0.90;;;0.90;;
10303;SDS011;5197;48.152;8.590;2024-03-29T11:19:41;0.60;;;0.60;;
10303;SDS011;5197;48.152;8.590;2024-03-29T11:22:08;3.33;;;1.00;;
10303;SDS011;5197;48.152;8.590;2024-03-29T11:24:35;0.60;;;0.60;;
10303;SDS011;5197;48.152;8.590;2024-03-29T11:27:09;1.20;;;0.70;;
10303;SDS011;5197;48.152;8.590;2024-03-29T11:29:41;0.70;;;0.67;;
10303;SDS011;5197;48.152;8.590;2024-03-29T11:32:08;0.77;;;0.57;;
10303;SDS011;5197;48.152;8.590;2024-03-29T11:34:34;1.17;;;1.07;;
10303;SDS011;5197;48.152;8.590;2024-03-29T11:37:07;0.60;;;0.60;;
10303;SDS011;5197;48.152;8.590;2024-03-29T11:39:34;3.07;;;0.73;;
10303;SDS011;5197;48.152;8.590;2024-03-29T11:42:01;0.93;;;0.83;;
10303;SDS011;5197;48.152;8.590;2024-03-29T11:44:29;0.67;;;0.67;;
10303;SDS011;5197;48.152;8.590;2024-03-29T11:46:58;0.77;;;0.70;;
10303;SDS011;5197;48.152;8.590;2024-03-29T11:49:25;0.97;;;0.70;;
10303;SDS011;5197;48.152;8.590;2024-03-29T11:52:01;0.93;;;0.80;;
10303;SDS011;5197;48.152;8.590;2024-03-29T11:54:36;1.40;;;0.80;;
10303;SDS011;5197;48.152;8.590;2024-03-29T11:57:03;0.60;;;0.60;;
10303;SDS011;5197;48.152;8.590;2024-03-29T11:59:29;1.60;;;0.80;;
10303;SDS011;5197;48.152;8.590;2024-03-29T12:01:55;1.63;;;0.60;;
10303;SDS011;5197;48.152;8.590;2024-03-29T12:04:22;0.60;;;0.60;;
10303;SDS011;5197;48.152;8.590;2024-03-29T12:06:49;1.90;;;0.70;;
10303;SDS011;5197;48.152;8.590;2024-03-29T12:09:15;1.43;;;0.70;;
10303;SDS011;5197;48.152;8.590;2024-03-29T12:11:43;0.67;;;0.67;;
10303;SDS011;5197;48.152;8.590;2024-03-29T12:14:15;0.50;;;0.50;;
10303;SDS011;5197;48.152;8.590;2024-03-29T12:16:44;0.63;;;0.40;;
10303;SDS011;5197;48.152;8.590;2024-03-29T12:19:21;0.63;;;0.63;;
10303;SDS011;5197;48.152;8.590;2024-03-29T12:21:52;2.13;;;0.83;;
10303;SDS011;5197;48.152;8.590;2024-03-29T12:24:20;0.73;;;0.73;;
10303;SDS011;5197;48.152;8.590;2024-03-29T12:26:48;1.40;;;0.60;;
10303;SDS011;5197;48.152;8.590;2024-03-29T12:29:15;1.00;;;0.60;;
10303;SDS011;5197;48.152;8.590;2024-03-29T12:31:41;0.50;;;0.50;;
10303;SDS011;5197;48.152;8.590;2024-03-29T12:34:07;1.67;;;0.97;;
10303;SDS011;5197;48.152;8.590;2024-03-29T12:36:33;0.60;;;0.60;;
10303;SDS011;5197;48.152;8.590;2024-03-29T12:38:59;1.27;;;0.73;;
10303;SDS011;5197;48.152;8.590;2024-03-29T12:41:31;3.70;;;0.80;;
10303;SDS011;5197;48.152;8.590;2024-03-29T12:44:02;1.70;;;0.77;;
10303;SDS011;5197;48.152;8.590;2024-03-29T12:46:28;0.70;;;0.70;;
10303;SDS011;5197;48.152;8.590;2024-03-29T12:49:00;0.80;;;0.80;;
10303;SDS011;5197;48.152;8.590;2024-03-29T12:51:27;0.70;;;0.70;;
10303;SDS011;5197;48.152;8.590;2024-03-29T12:54:01;0.70;;;0.70;;
10303;SDS011;5197;48.152;8.590;2024-03-29T12:56:29;0.57;;;0.57;;
10303;SDS011;5197;48.152;8.590;2024-03-29T12:58:57;0.67;;;0.67;;
10303;SDS011;5197;48.152;8.590;2024-03-29T13:01:23;0.80;;;0.80;;
10303;SDS011;5197;48.152;8.590;2024-03-29T13:03:49;1.23;;;1.10;;
10303;SDS011;5197;48.152;8.590;2024-03-29T13:06:15;0.80;;;0.50;;
10303;SDS011;5197;48.152;8.590;2024-03-29T13:08:41;2.10;;;0.93;;
10303;SDS011;5197;48.152;8.590;2024-03-29T13:11:06;1.27;;;0.80;;
10303;SDS011;5197;48.152;8.590;2024-03-29T13:13:32;0.60;;;0.60;;
10303;SDS011;5197;48.152;8.590;2024-03-29T13:15:58;1.53;;;0.70;;
10303;SDS011;5197;48.152;8.590;2024-03-29T13:18:24;0.63;;;0.63;;
10303;SDS011;5197;48.152;8.590;2024-03-29T13:20:50;0.67;;;0.67;;
10303;SDS011;5197;48.152;8.590;2024-03-29T13:23:16;0.70;;;0.70;;
10303;SDS011;5197;48.152;8.590;2024-03-29T13:25:42;0.70;;;0.70;;
10303;SDS011;5197;48.152;8.590;2024-03-29T13:28:09;0.93;;;0.70;;
10303;SDS011;5197;48.152;8.590;2024-03-29T13:30:36;0.77;;;0.73;;
10303;SDS011;5197;48.152;8.590;2024-03-29T13:33:08;0.70;;;0.70;;
10303;SDS011;5197;48.152;8.590;2024-03-29T13:36:00;0.80;;;0.80;;
10303;SDS011;5197;48.152;8.590;2024-03-29T13:38:51;1.75;;;0.82;;
10303;SDS011;5197;48.152;8.590;2024-03-29T13:41:19;0.90;;;0.70;;
10303;SDS011;5197;48.152;8.590;2024-03-29T13:43:45;0.82;;;0.80;;
10303;SDS011;5197;48.152;8.590;2024-03-29T13:46:11;0.60;;;0.60;;
10303;SDS011;5197;48.152;8.590;2024-03-29T13:48:38;0.60;;;0.60;;
10303;SDS011;5197;48.152;8.590;2024-03-29T13:51:03;1.65;;;0.80;;
10303;SDS011;5197;48.152;8.590;2024-03-29T13:53:32;1.63;;;0.73;;
10303;SDS011;5197;48.152;8.590;2024-03-29T13:56:01;0.55;;;0.55;;
10303;SDS011;5197;48.152;8.590;2024-03-29T13:58:28;0.80;;;0.80;;
10303;SDS011;5197;48.152;8.590;2024-03-29T14:00:55;0.70;;;0.70;;
10303;SDS011;5197;48.152;8.590;2024-03-29T14:03:25;0.70;;;0.70;;
10303;SDS011;5197;48.152;8.590;2024-03-29T14:05:51;1.33;;;1.30;;
10303;SDS011;5197;48.152;8.590;2024-03-29T14:08:17;0.70;;;0.70;;
10303;SDS011;5197;48.152;8.590;2024-03-29T14:10:43;0.60;;;0.60;;
10303;SDS011;5197;48.152;8.590;2024-03-29T14:13:12;1.03;;;0.80;;
10303;SDS011;5197;48.152;8.590;2024-03-29T14:15:39;0.70;;;0.70;;
10303;SDS011;5197;48.152;8.590;2024-03-29T14:18:05;0.80;;;0.80;;
10303;SDS011;5197;48.152;8.590;2024-03-29T14:20:31;2.03;;;1.13;;
10303;SDS011;5197;48.152;8.590;2024-03-29T14:22:56;2.22;;;1.10;;
10303;SDS011;5197;48.152;8.590;2024-03-29T14:25:28;0.93;;;0.60;;
10303;SDS011;5197;48.152;8.590;2024-03-29T14:27:54;0.80;;;0.43;;
10303;SDS011;5197;48.152;8.590;2024-03-29T14:30:23;0.65;;;0.65;;
10303;SDS011;5197;48.152;8.590;2024-03-29T14:32:52;0.50;;;0.50;;
10303;SDS011;5197;48.152;8.590;2024-03-29T14:35:19;1.40;;;0.93;;
10303;SDS011;5197;48.152;8.590;2024-03-29T14:37:45;0.70;;;0.70;;
10303;SDS011;5197;48.152;8.590;2024-03-29T14:40:12;1.10;;;0.95;;
10303;SDS011;5197;48.152;8.590;2024-03-29T14:42:40;0.80;;;0.80;;
10303;SDS011;5197;48.152;8.590;2024-03-29T14:45:07;1.17;;;0.87;;
10303;SDS011;5197;48.152;8.590;2024-03-29T14:47:36;0.53;;;0.53;;
10303;SDS011;5197;48.152;8.590;2024-03-29T14:50:03;0.80;;;0.80;;
10303;SDS011;5197;48.152;8.590;2024-03-29T14:52:39;0.80;;;0.80;;
10303;SDS011;5197;48.152;8.590;2024-03-29T14:55:05;0.95;;;0.88;;
10303;SDS011;5197;48.152;8.590;2024-03-29T14:57:32;0.65;;;0.65;;
10303;SDS011;5197;48.152;8.590;2024-03-29T14:59:58;0.57;;;0.57;;
10303;SDS011;5197;48.152;8.590;2024-03-29T15:02:24;0.60;;;0.60;;
10303;SDS011;5197;48.152;8.590;2024-03-29T15:04:50;0.70;;;0.70;;
10303;SDS011;5197;48.152;8.590;2024-03-29T15:07:16;0.80;;;0.70;;
10303;SDS011;5197;48.152;8.590;2024-03-29T15:09:42;0.50;;;0.50;;
10303;SDS011;5197;48.152;8.590;2024-03-29T15:12:08;0.70;;;0.70;;
10303;SDS011;5197;48.152;8.590;2024-03-29T15:14:34;1.87;;;0.80;;
10303;SDS011;5197;48.152;8.590;2024-03-29T15:17:01;0.90;;;0.90;;